sensor_id;sensor_type;location;lat;lon;timestamp;pressure;altitude;pressure_sealevel;temperature;humidity
15670;BME280;18524;45.190;5.732;2023-04-05T00:01:26;99372.09;;;8.43;58.60
15670;BME280;18524;45.190;5.732;2023-04-05T00:06:18;99373.47;;;8.36;58.64
15670;BME280;18524;45.190;5.732;2023-04-05T00:11:11;99367.56;;;8.20;59.73
15670;BME280;18524;45.190;5.732;2023-04-05T00:16:01;99381.97;;;8.12;60.86
15670;BME280;18524;45.190;5.732;2023-04-05T00:20:52;99375.56;;;8.04;62.85
15670;BME280;18524;45.190;5.732;2023-04-05T00:25:43;99369.00;;;8.11;62.34
15670;BME280;18524;45.190;5.732;2023-04-05T00:30:34;99374.13;;;8.12;62.91
15670;BME280;18524;45.190;5.732;2023-04-05T00:35:26;99377.97;;;8.07;63.62
15670;BME280;18524;45.190;5.732;2023-04-05T00:40:17;99374.22;;;8.11;64.10
15670;BME280;18524;45.190;5.732;2023-04-05T00:45:08;99378.16;;;7.91;65.57
15670;BME280;18524;45.190;5.732;2023-04-05T00:49:58;99373.88;;;7.90;63.19
15670;BME280;18524;45.190;5.732;2023-04-05T00:54:49;99365.41;;;7.87;65.03
15670;BME280;18524;45.190;5.732;2023-04-05T00:59:40;99358.31;;;7.89;64.70
15670;BME280;18524;45.190;5.732;2023-04-05T01:04:32;99353.78;;;7.78;67.13
15670;BME280;18524;45.190;5.732;2023-04-05T01:09:37;99366.00;;;7.77;66.61
15670;BME280;18524;45.190;5.732;2023-04-05T01:14:29;99364.94;;;7.67;66.63
15670;BME280;18524;45.190;5.732;2023-04-05T01:19:20;99359.69;;;7.55;68.06
15670;BME280;18524;45.190;5.732;2023-04-05T01:30:30;99358.28;;;7.76;64.56
15670;BME280;18524;45.190;5.732;2023-04-05T01:40:00;99356.84;;;7.45;68.94
15670;BME280;18524;45.190;5.732;2023-04-05T01:44:53;99342.44;;;7.52;68.06
15670;BME280;18524;45.190;5.732;2023-04-05T01:49:44;99363.22;;;7.53;66.75
15670;BME280;18524;45.190;5.732;2023-04-05T01:54:34;99350.94;;;7.41;68.46
15670;BME280;18524;45.190;5.732;2023-04-05T01:59:25;99360.50;;;7.28;68.72
15670;BME280;18524;45.190;5.732;2023-04-05T02:04:15;99363.22;;;7.27;65.83
15670;BME280;18524;45.190;5.732;2023-04-05T02:09:05;99360.41;;;7.30;70.11
15670;BME280;18524;45.190;5.732;2023-04-05T02:13:56;99354.94;;;7.20;70.29
15670;BME280;18524;45.190;5.732;2023-04-05T02:18:46;99357.44;;;7.21;70.57
15670;BME280;18524;45.190;5.732;2023-04-05T02:23:39;99355.88;;;7.19;70.65
15670;BME280;18524;45.190;5.732;2023-04-05T02:28:30;99371.63;;;7.17;69.73
15670;BME280;18524;45.190;5.732;2023-04-05T02:33:20;99373.03;;;7.09;67.47
15670;BME280;18524;45.190;5.732;2023-04-05T02:38:13;99370.97;;;7.00;67.20
15670;BME280;18524;45.190;5.732;2023-04-05T02:43:04;99374.66;;;6.83;69.27
15670;BME280;18524;45.190;5.732;2023-04-05T02:47:55;99371.22;;;6.82;71.16
15670;BME280;18524;45.190;5.732;2023-04-05T02:52:46;99375.09;;;6.89;70.36
15670;BME280;18524;45.190;5.732;2023-04-05T02:57:37;99374.56;;;6.70;71.59
15670;BME280;18524;45.190;5.732;2023-04-05T03:02:27;99375.56;;;6.68;70.38
15670;BME280;18524;45.190;5.732;2023-04-05T03:07:18;99372.91;;;6.69;73.78
15670;BME280;18524;45.190;5.732;2023-04-05T03:12:08;99381.38;;;6.73;70.40
15670;BME280;18524;45.190;5.732;2023-04-05T03:16:58;99382.44;;;6.69;69.80
15670;BME280;18524;45.190;5.732;2023-04-05T03:21:49;99387.47;;;6.57;71.60
15670;BME280;18524;45.190;5.732;2023-04-05T03:26:39;99398.19;;;6.53;73.13
15670;BME280;18524;45.190;5.732;2023-04-05T03:31:29;99394.56;;;6.41;73.82
15670;BME280;18524;45.190;5.732;2023-04-05T03:36:20;99402.75;;;6.49;72.84
15670;BME280;18524;45.190;5.732;2023-04-05T03:41:10;99397.81;;;6.45;73.06
15670;BME280;18524;45.190;5.732;2023-04-05T03:46:01;99398.94;;;6.41;73.19
15670;BME280;18524;45.190;5.732;2023-04-05T03:50:51;99406.38;;;6.61;72.38
15670;BME280;18524;45.190;5.732;2023-04-05T03:55:41;99398.94;;;6.41;69.95
15670;BME280;18524;45.190;5.732;2023-04-05T04:00:38;99407.81;;;6.22;72.91
15670;BME280;18524;45.190;5.732;2023-04-05T04:05:29;99413.00;;;6.08;71.70
15670;BME280;18524;45.190;5.732;2023-04-05T04:10:20;99423.41;;;6.08;73.80
15670;BME280;18524;45.190;5.732;2023-04-05T04:15:10;99418.38;;;6.05;77.52
15670;BME280;18524;45.190;5.732;2023-04-05T04:20:03;99410.47;;;6.07;76.05
15670;BME280;18524;45.190;5.732;2023-04-05T04:25:08;99408.88;;;5.88;76.25
15670;BME280;18524;45.190;5.732;2023-04-05T04:29:59;99410.25;;;5.80;75.87
15670;BME280;18524;45.190;5.732;2023-04-05T04:34:53;99414.69;;;5.93;77.07
15670;BME280;18524;45.190;5.732;2023-04-05T04:39:44;99415.19;;;5.84;74.73
15670;BME280;18524;45.190;5.732;2023-04-05T04:44:36;99414.91;;;5.89;77.11
15670;BME280;18524;45.190;5.732;2023-04-05T04:49:26;99418.13;;;5.94;76.55
15670;BME280;18524;45.190;5.732;2023-04-05T04:54:17;99413.94;;;5.91;75.10
15670;BME280;18524;45.190;5.732;2023-04-05T04:59:10;99428.47;;;5.95;76.14
15670;BME280;18524;45.190;5.732;2023-04-05T05:04:02;99431.31;;;5.91;76.14
15670;BME280;18524;45.190;5.732;2023-04-05T05:08:53;99427.94;;;6.05;74.35
15670;BME280;18524;45.190;5.732;2023-04-05T05:13:43;99427.03;;;6.06;74.67
15670;BME280;18524;45.190;5.732;2023-04-05T05:18:34;99431.94;;;5.96;75.77
15670;BME280;18524;45.190;5.732;2023-04-05T05:23:24;99436.59;;;6.05;74.47
15670;BME280;18524;45.190;5.732;2023-04-05T05:28:14;99427.97;;;6.19;73.54
15670;BME280;18524;45.190;5.732;2023-04-05T05:33:05;99435.03;;;6.17;74.08
15670;BME280;18524;45.190;5.732;2023-04-05T05:37:56;99434.50;;;6.26;73.15
15670;BME280;18524;45.190;5.732;2023-04-05T05:42:46;99438.59;;;6.30;74.72
15670;BME280;18524;45.190;5.732;2023-04-05T05:47:36;99441.22;;;6.30;72.98
15670;BME280;18524;45.190;5.732;2023-04-05T05:52:27;99450.00;;;6.43;73.08
15670;BME280;18524;45.190;5.732;2023-04-05T05:57:17;99453.75;;;6.68;70.59
15670;BME280;18524;45.190;5.732;2023-04-05T06:02:08;99458.72;;;7.15;68.82
15670;BME280;18524;45.190;5.732;2023-04-05T06:06:59;99465.50;;;7.46;65.82
15670;BME280;18524;45.190;5.732;2023-04-05T06:11:52;99454.53;;;7.68;64.69
15670;BME280;18524;45.190;5.732;2023-04-05T06:16:43;99465.31;;;8.03;64.21
15670;BME280;18524;45.190;5.732;2023-04-05T06:21:33;99477.41;;;8.31;62.35
15670;BME280;18524;45.190;5.732;2023-04-05T06:26:24;99475.44;;;8.74;60.12
15670;BME280;18524;45.190;5.732;2023-04-05T06:31:19;99487.16;;;9.06;59.41
15670;BME280;18524;45.190;5.732;2023-04-05T06:36:10;99487.97;;;9.20;58.33
15670;BME280;18524;45.190;5.732;2023-04-05T06:41:01;99487.53;;;9.38;57.94
15670;BME280;18524;45.190;5.732;2023-04-05T06:45:54;99486.81;;;9.73;57.35
15670;BME280;18524;45.190;5.732;2023-04-05T06:50:45;99488.16;;;10.02;55.55
15670;BME280;18524;45.190;5.732;2023-04-05T06:55:35;99477.31;;;10.44;55.61
15670;BME280;18524;45.190;5.732;2023-04-05T07:00:26;99467.50;;;10.81;54.03
15670;BME280;18524;45.190;5.732;2023-04-05T07:05:16;99463.69;;;10.96;51.91
15670;BME280;18524;45.190;5.732;2023-04-05T07:10:07;99471.81;;;11.26;50.64
15670;BME280;18524;45.190;5.732;2023-04-05T07:14:58;99470.84;;;11.61;49.13
15670;BME280;18524;45.190;5.732;2023-04-05T07:19:49;99466.78;;;11.68;48.83
15670;BME280;18524;45.190;5.732;2023-04-05T07:24:39;99467.00;;;12.19;46.72
15670;BME280;18524;45.190;5.732;2023-04-05T07:29:30;99450.47;;;12.29;46.95
15670;BME280;18524;45.190;5.732;2023-04-05T07:34:20;99464.78;;;12.77;45.80
15670;BME280;18524;45.190;5.732;2023-04-05T07:39:10;99465.88;;;12.75;46.00
15670;BME280;18524;45.190;5.732;2023-04-05T07:44:01;99475.25;;;12.89;45.60
15670;BME280;18524;45.190;5.732;2023-04-05T07:48:52;99468.69;;;13.04;44.47
15670;BME280;18524;45.190;5.732;2023-04-05T07:53:42;99459.72;;;13.16;43.91
15670;BME280;18524;45.190;5.732;2023-04-05T07:58:33;99459.19;;;13.43;42.95
15670;BME280;18524;45.190;5.732;2023-04-05T08:03:24;99459.28;;;13.91;41.68
15670;BME280;18524;45.190;5.732;2023-04-05T08:08:14;99457.38;;;14.13;40.76
15670;BME280;18524;45.190;5.732;2023-04-05T08:13:05;99450.97;;;14.15;40.99
15670;BME280;18524;45.190;5.732;2023-04-05T08:17:57;99461.53;;;14.34;40.71
15670;BME280;18524;45.190;5.732;2023-04-05T08:22:47;99461.25;;;14.37;39.46
15670;BME280;18524;45.190;5.732;2023-04-05T08:27:38;99460.56;;;14.64;39.84
15670;BME280;18524;45.190;5.732;2023-04-05T08:32:28;99452.91;;;14.71;39.00
15670;BME280;18524;45.190;5.732;2023-04-05T08:37:18;99450.50;;;14.87;39.83
15670;BME280;18524;45.190;5.732;2023-04-05T08:42:16;99442.81;;;15.04;40.31
15670;BME280;18524;45.190;5.732;2023-04-05T08:47:07;99443.88;;;15.11;38.72
15670;BME280;18524;45.190;5.732;2023-04-05T08:51:59;99439.22;;;14.95;38.49
15670;BME280;18524;45.190;5.732;2023-04-05T08:56:50;99436.03;;;14.91;38.14
15670;BME280;18524;45.190;5.732;2023-04-05T09:01:44;99432.09;;;15.05;37.22
15670;BME280;18524;45.190;5.732;2023-04-05T09:06:35;99427.59;;;14.78;36.55
15670;BME280;18524;45.190;5.732;2023-04-05T09:11:26;99420.59;;;14.96;36.53
15670;BME280;18524;45.190;5.732;2023-04-05T09:16:17;99418.16;;;15.13;35.59
15670;BME280;18524;45.190;5.732;2023-04-05T09:21:08;99410.84;;;15.34;35.00
15670;BME280;18524;45.190;5.732;2023-04-05T09:25:59;99411.84;;;15.23;35.42
15670;BME280;18524;45.190;5.732;2023-04-05T09:30:49;99413.78;;;15.21;34.36
15670;BME280;18524;45.190;5.732;2023-04-05T09:35:40;99413.81;;;15.76;34.87
15670;BME280;18524;45.190;5.732;2023-04-05T09:45:38;99399.19;;;16.43;33.17
15670;BME280;18524;45.190;5.732;2023-04-05T09:50:29;99390.56;;;16.93;32.74
15670;BME280;18524;45.190;5.732;2023-04-05T09:55:27;99376.94;;;17.14;31.79
15670;BME280;18524;45.190;5.732;2023-04-05T10:00:19;99376.13;;;17.22;31.55
15670;BME280;18524;45.190;5.732;2023-04-05T10:05:11;99366.84;;;17.68;30.74
15670;BME280;18524;45.190;5.732;2023-04-05T10:10:05;99364.06;;;17.86;31.17
15670;BME280;18524;45.190;5.732;2023-04-05T10:14:56;99349.75;;;18.19;30.88
15670;BME280;18524;45.190;5.732;2023-04-05T10:20:09;99360.41;;;18.03;29.82
15670;BME280;18524;45.190;5.732;2023-04-05T10:25:30;99350.75;;;18.34;29.71
15670;BME280;18524;45.190;5.732;2023-04-05T10:30:33;99362.22;;;18.10;29.82
15670;BME280;18524;45.190;5.732;2023-04-05T10:36:06;99358.56;;;18.36;30.09
15670;BME280;18524;45.190;5.732;2023-04-05T10:41:08;99361.25;;;17.87;30.96
15670;BME280;18524;45.190;5.732;2023-04-05T10:46:01;99346.31;;;18.02;30.99
15670;BME280;18524;45.190;5.732;2023-04-05T10:50:53;99336.50;;;18.19;30.51
15670;BME280;18524;45.190;5.732;2023-04-05T10:55:43;99325.28;;;18.81;29.93
15670;BME280;18524;45.190;5.732;2023-04-05T11:00:35;99313.72;;;19.35;30.46
15670;BME280;18524;45.190;5.732;2023-04-05T11:05:33;99314.25;;;19.85;28.82
15670;BME280;18524;45.190;5.732;2023-04-05T11:10:24;99304.72;;;19.90;28.11
15670;BME280;18524;45.190;5.732;2023-04-05T11:20:17;99279.41;;;20.47;26.97
15670;BME280;18524;45.190;5.732;2023-04-05T11:25:21;99276.09;;;20.45;26.49
15670;BME280;18524;45.190;5.732;2023-04-05T11:30:12;99282.22;;;20.89;25.85
15670;BME280;18524;45.190;5.732;2023-04-05T11:35:06;99271.84;;;21.31;25.05
15670;BME280;18524;45.190;5.732;2023-04-05T11:40:26;99279.97;;;21.08;24.42
15670;BME280;18524;45.190;5.732;2023-04-05T11:45:18;99261.31;;;21.08;24.27
15670;BME280;18524;45.190;5.732;2023-04-05T11:50:08;99278.66;;;20.68;24.69
15670;BME280;18524;45.190;5.732;2023-04-05T11:54:59;99240.31;;;20.83;25.04
15670;BME280;18524;45.190;5.732;2023-04-05T11:59:50;99242.50;;;21.16;24.83
15670;BME280;18524;45.190;5.732;2023-04-05T12:04:41;99250.25;;;21.11;24.99
15670;BME280;18524;45.190;5.732;2023-04-05T12:09:31;99247.69;;;20.67;23.69
15670;BME280;18524;45.190;5.732;2023-04-05T12:14:22;99254.28;;;20.71;24.25
15670;BME280;18524;45.190;5.732;2023-04-05T12:19:15;99245.78;;;20.46;25.39
15670;BME280;18524;45.190;5.732;2023-04-05T12:24:06;99239.84;;;20.36;24.87
15670;BME280;18524;45.190;5.732;2023-04-05T12:28:57;99234.72;;;20.19;25.41
15670;BME280;18524;45.190;5.732;2023-04-05T12:33:48;99246.94;;;20.14;26.24
15670;BME280;18524;45.190;5.732;2023-04-05T12:38:39;99248.25;;;19.95;25.44
15670;BME280;18524;45.190;5.732;2023-04-05T12:43:39;99240.63;;;19.92;26.50
15670;BME280;18524;45.190;5.732;2023-04-05T12:48:30;99244.50;;;20.04;27.09
15670;BME280;18524;45.190;5.732;2023-04-05T12:53:22;99233.75;;;19.83;26.86
15670;BME280;18524;45.190;5.732;2023-04-05T12:58:13;99235.47;;;19.76;26.96
15670;BME280;18524;45.190;5.732;2023-04-05T13:03:04;99230.91;;;19.61;27.44
15670;BME280;18524;45.190;5.732;2023-04-05T13:07:55;99227.72;;;19.43;27.39
15670;BME280;18524;45.190;5.732;2023-04-05T13:12:46;99221.94;;;19.17;28.33
15670;BME280;18524;45.190;5.732;2023-04-05T13:17:37;99233.34;;;18.55;28.31
15670;BME280;18524;45.190;5.732;2023-04-05T13:22:27;99233.44;;;18.31;28.72
15670;BME280;18524;45.190;5.732;2023-04-05T13:27:19;99229.88;;;17.83;29.25
15670;BME280;18524;45.190;5.732;2023-04-05T13:32:10;99219.41;;;17.41;30.21
15670;BME280;18524;45.190;5.732;2023-04-05T13:37:01;99223.47;;;16.86;30.86
15670;BME280;18524;45.190;5.732;2023-04-05T13:41:51;99215.84;;;16.75;30.66
15670;BME280;18524;45.190;5.732;2023-04-05T13:46:41;99211.38;;;16.76;31.28
15670;BME280;18524;45.190;5.732;2023-04-05T13:51:32;99219.94;;;16.70;31.55
15670;BME280;18524;45.190;5.732;2023-04-05T13:56:23;99212.94;;;16.61;31.04
15670;BME280;18524;45.190;5.732;2023-04-05T14:01:13;99203.19;;;16.27;31.76
15670;BME280;18524;45.190;5.732;2023-04-05T14:06:04;99213.94;;;16.25;31.86
15670;BME280;18524;45.190;5.732;2023-04-05T14:10:55;99211.25;;;15.91;32.99
15670;BME280;18524;45.190;5.732;2023-04-05T14:15:45;99202.56;;;15.99;33.42
15670;BME280;18524;45.190;5.732;2023-04-05T14:20:35;99197.94;;;16.01;32.28
15670;BME280;18524;45.190;5.732;2023-04-05T14:25:26;99188.88;;;15.78;32.54
15670;BME280;18524;45.190;5.732;2023-04-05T14:30:16;99199.88;;;15.65;32.75
15670;BME280;18524;45.190;5.732;2023-04-05T14:35:07;99186.34;;;15.68;32.39
15670;BME280;18524;45.190;5.732;2023-04-05T14:39:58;99187.81;;;15.53;32.56
15670;BME280;18524;45.190;5.732;2023-04-05T14:44:48;99188.81;;;15.52;32.50
15670;BME280;18524;45.190;5.732;2023-04-05T14:49:39;99178.13;;;15.36;32.74
15670;BME280;18524;45.190;5.732;2023-04-05T14:54:29;99179.47;;;15.40;33.08
15670;BME280;18524;45.190;5.732;2023-04-05T14:59:19;99166.56;;;15.37;32.46
15670;BME280;18524;45.190;5.732;2023-04-05T15:04:10;99170.19;;;15.36;32.07
15670;BME280;18524;45.190;5.732;2023-04-05T15:09:01;99166.50;;;15.28;32.67
15670;BME280;18524;45.190;5.732;2023-04-05T15:13:51;99155.78;;;15.30;32.29
15670;BME280;18524;45.190;5.732;2023-04-05T15:18:43;99149.00;;;15.27;31.84
15670;BME280;18524;45.190;5.732;2023-04-05T15:23:33;99154.28;;;15.27;31.84
15670;BME280;18524;45.190;5.732;2023-04-05T15:28:23;99150.13;;;15.25;32.34
15670;BME280;18524;45.190;5.732;2023-04-05T15:33:15;99155.13;;;15.28;31.42
15670;BME280;18524;45.190;5.732;2023-04-05T15:38:06;99154.03;;;15.21;31.72
15670;BME280;18524;45.190;5.732;2023-04-05T15:42:56;99156.16;;;15.17;31.49
15670;BME280;18524;45.190;5.732;2023-04-05T15:47:47;99151.78;;;15.08;32.47
15670;BME280;18524;45.190;5.732;2023-04-05T15:52:37;99164.03;;;14.91;32.29
15670;BME280;18524;45.190;5.732;2023-04-05T15:57:27;99155.06;;;15.02;32.14
15670;BME280;18524;45.190;5.732;2023-04-05T16:02:18;99151.13;;;14.88;32.47
15670;BME280;18524;45.190;5.732;2023-04-05T16:07:09;99151.28;;;14.87;32.93
15670;BME280;18524;45.190;5.732;2023-04-05T16:12:00;99148.34;;;14.90;32.55
15670;BME280;18524;45.190;5.732;2023-04-05T16:16:50;99147.25;;;14.83;33.49
15670;BME280;18524;45.190;5.732;2023-04-05T16:21:41;99146.44;;;14.82;33.72
15670;BME280;18524;45.190;5.732;2023-04-05T16:26:31;99140.47;;;14.80;33.65
15670;BME280;18524;45.190;5.732;2023-04-05T16:31:22;99160.47;;;14.83;32.79
15670;BME280;18524;45.190;5.732;2023-04-05T16:36:12;99145.69;;;14.72;33.63
15670;BME280;18524;45.190;5.732;2023-04-05T16:41:03;99135.66;;;14.58;34.29
15670;BME280;18524;45.190;5.732;2023-04-05T16:45:53;99148.69;;;14.59;34.26
15670;BME280;18524;45.190;5.732;2023-04-05T16:50:43;99146.81;;;14.42;34.66
15670;BME280;18524;45.190;5.732;2023-04-05T16:55:34;99149.88;;;14.37;35.09
15670;BME280;18524;45.190;5.732;2023-04-05T17:00:24;99154.63;;;14.34;35.34
15670;BME280;18524;45.190;5.732;2023-04-05T17:05:15;99158.41;;;14.31;35.82
15670;BME280;18524;45.190;5.732;2023-04-05T17:10:06;99151.59;;;14.29;36.40
15670;BME280;18524;45.190;5.732;2023-04-05T17:14:56;99160.50;;;14.28;36.92
15670;BME280;18524;45.190;5.732;2023-04-05T17:19:47;99170.81;;;14.12;37.30
15670;BME280;18524;45.190;5.732;2023-04-05T17:24:37;99173.91;;;14.07;36.27
15670;BME280;18524;45.190;5.732;2023-04-05T17:29:28;99176.44;;;13.99;36.18
15670;BME280;18524;45.190;5.732;2023-04-05T17:34:18;99183.09;;;14.03;36.69
15670;BME280;18524;45.190;5.732;2023-04-05T17:39:09;99170.66;;;13.86;36.82
15670;BME280;18524;45.190;5.732;2023-04-05T17:43:59;99180.25;;;13.87;36.26
15670;BME280;18524;45.190;5.732;2023-04-05T17:48:50;99189.56;;;13.81;36.31
15670;BME280;18524;45.190;5.732;2023-04-05T17:53:41;99199.25;;;13.71;37.17
15670;BME280;18524;45.190;5.732;2023-04-05T17:58:33;99196.78;;;13.60;37.32
15670;BME280;18524;45.190;5.732;2023-04-05T18:03:24;99203.44;;;13.64;37.09
15670;BME280;18524;45.190;5.732;2023-04-05T18:08:15;99202.38;;;13.47;37.69
15670;BME280;18524;45.190;5.732;2023-04-05T18:13:05;99206.78;;;13.37;38.02
15670;BME280;18524;45.190;5.732;2023-04-05T18:17:56;99206.38;;;13.32;38.23
15670;BME280;18524;45.190;5.732;2023-04-05T18:22:46;99219.69;;;13.21;39.05
15670;BME280;18524;45.190;5.732;2023-04-05T18:27:37;99220.09;;;13.16;39.29
15670;BME280;18524;45.190;5.732;2023-04-05T18:32:28;99229.53;;;13.19;38.25
15670;BME280;18524;45.190;5.732;2023-04-05T18:37:18;99246.56;;;13.14;38.00
15670;BME280;18524;45.190;5.732;2023-04-05T18:42:09;99248.59;;;12.92;38.17
15670;BME280;18524;45.190;5.732;2023-04-05T18:46:59;99252.47;;;12.88;38.28
15670;BME280;18524;45.190;5.732;2023-04-05T18:51:50;99254.25;;;12.77;38.75
15670;BME280;18524;45.190;5.732;2023-04-05T18:56:40;99264.28;;;12.53;39.18
15670;BME280;18524;45.190;5.732;2023-04-05T19:01:31;99275.66;;;12.63;39.32
15670;BME280;18524;45.190;5.732;2023-04-05T19:06:21;99278.81;;;12.57;40.17
15670;BME280;18524;45.190;5.732;2023-04-05T19:11:12;99279.22;;;12.52;39.81
15670;BME280;18524;45.190;5.732;2023-04-05T19:16:04;99289.53;;;12.35;40.27
15670;BME280;18524;45.190;5.732;2023-04-05T19:20:56;99297.56;;;12.33;40.62
15670;BME280;18524;45.190;5.732;2023-04-05T19:25:46;99299.28;;;12.44;39.95
15670;BME280;18524;45.190;5.732;2023-04-05T19:30:40;99312.78;;;12.30;40.95
15670;BME280;18524;45.190;5.732;2023-04-05T19:35:30;99306.06;;;12.26;40.21
15670;BME280;18524;45.190;5.732;2023-04-05T19:40:23;99318.09;;;12.18;40.34
15670;BME280;18524;45.190;5.732;2023-04-05T19:45:22;99317.38;;;12.16;39.79
15670;BME280;18524;45.190;5.732;2023-04-05T19:55:31;99323.88;;;12.12;39.63
15670;BME280;18524;45.190;5.732;2023-04-05T20:06:12;99329.91;;;12.03;40.12
15670;BME280;18524;45.190;5.732;2023-04-05T20:11:04;99339.19;;;12.07;39.30
15670;BME280;18524;45.190;5.732;2023-04-05T20:15:56;99343.44;;;11.99;39.84
15670;BME280;18524;45.190;5.732;2023-04-05T20:20:47;99338.44;;;11.96;39.30
15670;BME280;18524;45.190;5.732;2023-04-05T20:25:42;99336.91;;;11.82;39.85
15670;BME280;18524;45.190;5.732;2023-04-05T20:30:32;99335.44;;;11.89;39.76
15670;BME280;18524;45.190;5.732;2023-04-05T20:35:33;99332.38;;;11.84;39.23
15670;BME280;18524;45.190;5.732;2023-04-05T20:40:25;99344.44;;;11.75;40.52
15670;BME280;18524;45.190;5.732;2023-04-05T20:45:15;99348.66;;;11.67;40.74
15670;BME280;18524;45.190;5.732;2023-04-05T20:50:07;99354.63;;;11.69;41.24
15670;BME280;18524;45.190;5.732;2023-04-05T20:54:57;99355.00;;;11.64;40.32
15670;BME280;18524;45.190;5.732;2023-04-05T20:59:47;99359.09;;;11.57;41.55
15670;BME280;18524;45.190;5.732;2023-04-05T21:04:38;99358.00;;;11.59;42.21
15670;BME280;18524;45.190;5.732;2023-04-05T21:09:29;99349.19;;;11.61;40.47
15670;BME280;18524;45.190;5.732;2023-04-05T21:14:19;99354.09;;;11.54;40.69
15670;BME280;18524;45.190;5.732;2023-04-05T21:19:10;99363.41;;;11.47;41.41
15670;BME280;18524;45.190;5.732;2023-04-05T21:24:00;99364.84;;;11.40;40.86
15670;BME280;18524;45.190;5.732;2023-04-05T21:28:50;99370.13;;;11.40;41.15
15670;BME280;18524;45.190;5.732;2023-04-05T21:33:41;99372.88;;;11.38;41.51
15670;BME280;18524;45.190;5.732;2023-04-05T21:38:31;99370.84;;;11.31;40.57
15670;BME280;18524;45.190;5.732;2023-04-05T21:43:22;99373.59;;;11.29;40.05
15670;BME280;18524;45.190;5.732;2023-04-05T21:48:12;99367.84;;;11.35;40.60
15670;BME280;18524;45.190;5.732;2023-04-05T21:53:02;99374.56;;;11.28;40.22
15670;BME280;18524;45.190;5.732;2023-04-05T21:57:54;99381.38;;;11.31;41.27
15670;BME280;18524;45.190;5.732;2023-04-05T22:02:45;99384.59;;;11.23;41.04
15670;BME280;18524;45.190;5.732;2023-04-05T22:07:36;99385.09;;;11.17;42.43
15670;BME280;18524;45.190;5.732;2023-04-05T22:12:27;99385.69;;;11.20;41.29
15670;BME280;18524;45.190;5.732;2023-04-05T22:17:17;99388.66;;;11.16;43.48
15670;BME280;18524;45.190;5.732;2023-04-05T22:22:08;99390.19;;;11.30;44.68
15670;BME280;18524;45.190;5.732;2023-04-05T22:26:59;99395.56;;;11.06;45.96
15670;BME280;18524;45.190;5.732;2023-04-05T22:31:49;99398.91;;;11.08;45.79
15670;BME280;18524;45.190;5.732;2023-04-05T22:36:40;99401.31;;;11.00;47.01
15670;BME280;18524;45.190;5.732;2023-04-05T22:41:31;99402.03;;;10.90;47.35
15670;BME280;18524;45.190;5.732;2023-04-05T22:46:22;99405.50;;;10.80;47.54
15670;BME280;18524;45.190;5.732;2023-04-05T22:51:12;99419.19;;;10.72;48.37
15670;BME280;18524;45.190;5.732;2023-04-05T22:56:03;99425.13;;;10.63;49.58
15670;BME280;18524;45.190;5.732;2023-04-05T23:00:53;99420.47;;;10.55;51.33
15670;BME280;18524;45.190;5.732;2023-04-05T23:05:43;99420.34;;;10.46;50.89
15670;BME280;18524;45.190;5.732;2023-04-05T23:10:34;99418.91;;;10.42;50.80
15670;BME280;18524;45.190;5.732;2023-04-05T23:15:24;99429.28;;;10.19;53.50
15670;BME280;18524;45.190;5.732;2023-04-05T23:20:15;99438.84;;;10.20;51.20
15670;BME280;18524;45.190;5.732;2023-04-05T23:25:06;99437.91;;;10.21;50.71
15670;BME280;18524;45.190;5.732;2023-04-05T23:29:57;99442.06;;;10.00;51.08
15670;BME280;18524;45.190;5.732;2023-04-05T23:34:48;99439.56;;;9.98;53.27
15670;BME280;18524;45.190;5.732;2023-04-05T23:39:38;99435.66;;;10.04;52.68
15670;BME280;18524;45.190;5.732;2023-04-05T23:44:29;99438.59;;;9.99;53.38
15670;BME280;18524;45.190;5.732;2023-04-05T23:49:19;99441.84;;;10.03;53.74
15670;BME280;18524;45.190;5.732;2023-04-05T23:54:11;99447.53;;;9.97;53.85
15670;BME280;18524;45.190;5.732;2023-04-05T23:59:01;99439.16;;;9.92;54.02
